Terminal Aerodrome Forecast
Issued by NWS Twin Cities, MN

Home | Current Version | Previous Version | Graphics & Text | Print | Product List | Glossary On
Versions: 1 2 3 4 5 6 7 8 9 10 11 12 13 14 15 16 17 18 19 20 21
809
FTUS43 KMPX 241143
TAFSTC
TAF
KSTC 241143Z 2412/2512 17004KT 1/2SM FG VV002
     FM241230 17004KT 4SM BR FEW070
     FM241300 20006KT P6SM SCT200
     FM250000 12003KT P6SM BKN200=

USA.gov is the U.S. government's official web portal to all federal, state and local government web resources and services.